sensor_id;sensor_type;location;lat;lon;timestamp;P1;durP1;ratioP1;P2;durP2;ratioP2
6598;SDS011;3335;43.198;27.918;2023-01-28T00:00:13;7.93;;;5.70;;
6598;SDS011;3335;43.198;27.918;2023-01-28T00:02:42;8.10;;;6.10;;
6598;SDS011;3335;43.198;27.918;2023-01-28T00:05:09;7.80;;;5.87;;
6598;SDS011;3335;43.198;27.918;2023-01-28T00:07:36;7.03;;;5.70;;
6598;SDS011;3335;43.198;27.918;2023-01-28T00:10:03;10.27;;;5.80;;
6598;SDS011;3335;43.198;27.918;2023-01-28T00:12:31;7.60;;;4.80;;
6598;SDS011;3335;43.198;27.918;2023-01-28T00:14:58;6.50;;;5.53;;
6598;SDS011;3335;43.198;27.918;2023-01-28T00:17:25;9.30;;;6.00;;
6598;SDS011;3335;43.198;27.918;2023-01-28T00:19:53;5.57;;;4.63;;
6598;SDS011;3335;43.198;27.918;2023-01-28T00:22:20;5.97;;;4.83;;
6598;SDS011;3335;43.198;27.918;2023-01-28T00:24:47;5.43;;;4.80;;
6598;SDS011;3335;43.198;27.918;2023-01-28T00:27:14;5.33;;;4.13;;
6598;SDS011;3335;43.198;27.918;2023-01-28T00:29:41;5.90;;;4.50;;
6598;SDS011;3335;43.198;27.918;2023-01-28T00:32:08;8.13;;;4.60;;
6598;SDS011;3335;43.198;27.918;2023-01-28T00:34:35;5.13;;;4.60;;
6598;SDS011;3335;43.198;27.918;2023-01-28T00:37:03;5.27;;;4.00;;
6598;SDS011;3335;43.198;27.918;2023-01-28T00:39:30;5.53;;;3.67;;
6598;SDS011;3335;43.198;27.918;2023-01-28T00:41:57;3.80;;;3.47;;
6598;SDS011;3335;43.198;27.918;2023-01-28T00:44:24;5.27;;;3.60;;
6598;SDS011;3335;43.198;27.918;2023-01-28T00:46:51;3.57;;;2.97;;
6598;SDS011;3335;43.198;27.918;2023-01-28T00:49:18;3.53;;;3.10;;
6598;SDS011;3335;43.198;27.918;2023-01-28T00:51:45;3.83;;;3.40;;
6598;SDS011;3335;43.198;27.918;2023-01-28T00:54:14;3.67;;;3.27;;
6598;SDS011;3335;43.198;27.918;2023-01-28T00:56:41;4.30;;;3.77;;
6598;SDS011;3335;43.198;27.918;2023-01-28T00:59:08;3.97;;;3.57;;
6598;SDS011;3335;43.198;27.918;2023-01-28T01:01:35;3.40;;;3.03;;
6598;SDS011;3335;43.198;27.918;2023-01-28T01:04:02;4.00;;;3.13;;
6598;SDS011;3335;43.198;27.918;2023-01-28T01:06:30;3.80;;;3.43;;
6598;SDS011;3335;43.198;27.918;2023-01-28T01:08:58;5.93;;;3.23;;
6598;SDS011;3335;43.198;27.918;2023-01-28T01:11:26;3.93;;;3.63;;
6598;SDS011;3335;43.198;27.918;2023-01-28T01:13:54;3.03;;;2.73;;
6598;SDS011;3335;43.198;27.918;2023-01-28T01:16:23;4.37;;;3.97;;
6598;SDS011;3335;43.198;27.918;2023-01-28T01:18:51;4.07;;;3.67;;
6598;SDS011;3335;43.198;27.918;2023-01-28T01:21:20;4.53;;;3.50;;
6598;SDS011;3335;43.198;27.918;2023-01-28T01:23:49;3.83;;;3.47;;
6598;SDS011;3335;43.198;27.918;2023-01-28T01:26:17;3.83;;;3.30;;
6598;SDS011;3335;43.198;27.918;2023-01-28T01:28:45;4.77;;;3.30;;
6598;SDS011;3335;43.198;27.918;2023-01-28T01:31:13;3.37;;;3.07;;
6598;SDS011;3335;43.198;27.918;2023-01-28T01:33:42;4.33;;;3.70;;
6598;SDS011;3335;43.198;27.918;2023-01-28T01:36:11;3.90;;;3.50;;
6598;SDS011;3335;43.198;27.918;2023-01-28T01:38:39;4.50;;;3.83;;
6598;SDS011;3335;43.198;27.918;2023-01-28T01:41:06;6.30;;;3.97;;
6598;SDS011;3335;43.198;27.918;2023-01-28T01:43:48;4.43;;;3.70;;
6598;SDS011;3335;43.198;27.918;2023-01-28T01:46:16;4.50;;;3.97;;
6598;SDS011;3335;43.198;27.918;2023-01-28T01:48:46;6.03;;;3.93;;
6598;SDS011;3335;43.198;27.918;2023-01-28T01:51:14;5.50;;;4.53;;
6598;SDS011;3335;43.198;27.918;2023-01-28T01:53:47;5.30;;;4.40;;
6598;SDS011;3335;43.198;27.918;2023-01-28T01:56:18;5.57;;;4.17;;
6598;SDS011;3335;43.198;27.918;2023-01-28T01:58:51;5.33;;;3.93;;
6598;SDS011;3335;43.198;27.918;2023-01-28T02:01:22;6.00;;;4.10;;
6598;SDS011;3335;43.198;27.918;2023-01-28T02:03:52;5.67;;;3.93;;
6598;SDS011;3335;43.198;27.918;2023-01-28T02:06:24;5.13;;;4.47;;
6598;SDS011;3335;43.198;27.918;2023-01-28T02:08:53;5.73;;;3.90;;
6598;SDS011;3335;43.198;27.918;2023-01-28T02:11:20;7.33;;;3.77;;
6598;SDS011;3335;43.198;27.918;2023-01-28T02:13:52;4.20;;;3.80;;
6598;SDS011;3335;43.198;27.918;2023-01-28T02:16:22;5.77;;;4.13;;
6598;SDS011;3335;43.198;27.918;2023-01-28T02:18:50;3.93;;;3.53;;
6598;SDS011;3335;43.198;27.918;2023-01-28T02:21:30;5.63;;;4.17;;
6598;SDS011;3335;43.198;27.918;2023-01-28T02:27:22;7.03;;;3.77;;
6598;SDS011;3335;43.198;27.918;2023-01-28T02:29:58;7.17;;;4.23;;
6598;SDS011;3335;43.198;27.918;2023-01-28T02:32:32;6.20;;;3.70;;
6598;SDS011;3335;43.198;27.918;2023-01-28T02:35:07;5.27;;;4.07;;
6598;SDS011;3335;43.198;27.918;2023-01-28T02:37:43;4.57;;;3.70;;
6598;SDS011;3335;43.198;27.918;2023-01-28T02:40:14;5.00;;;3.90;;
6598;SDS011;3335;43.198;27.918;2023-01-28T02:42:45;3.83;;;3.20;;
6598;SDS011;3335;43.198;27.918;2023-01-28T02:45:18;4.40;;;3.80;;
6598;SDS011;3335;43.198;27.918;2023-01-28T02:47:47;7.50;;;3.87;;
6598;SDS011;3335;43.198;27.918;2023-01-28T02:50:22;5.97;;;3.70;;
6598;SDS011;3335;43.198;27.918;2023-01-28T02:52:55;5.97;;;3.93;;
6598;SDS011;3335;43.198;27.918;2023-01-28T02:55:49;5.63;;;4.47;;
6598;SDS011;3335;43.198;27.918;2023-01-28T02:58:23;6.30;;;3.90;;
6598;SDS011;3335;43.198;27.918;2023-01-28T03:00:59;7.40;;;3.83;;
6598;SDS011;3335;43.198;27.918;2023-01-28T03:03:38;5.20;;;3.80;;
6598;SDS011;3335;43.198;27.918;2023-01-28T03:06:13;5.13;;;3.93;;
6598;SDS011;3335;43.198;27.918;2023-01-28T03:08:45;6.53;;;4.37;;
6598;SDS011;3335;43.198;27.918;2023-01-28T03:11:33;6.13;;;4.53;;
6598;SDS011;3335;43.198;27.918;2023-01-28T03:14:22;7.73;;;4.70;;
6598;SDS011;3335;43.198;27.918;2023-01-28T03:17:09;6.40;;;4.43;;
6598;SDS011;3335;43.198;27.918;2023-01-28T03:19:58;7.20;;;4.30;;
6598;SDS011;3335;43.198;27.918;2023-01-28T03:22:43;4.30;;;3.77;;
6598;SDS011;3335;43.198;27.918;2023-01-28T03:25:30;6.30;;;4.37;;
6598;SDS011;3335;43.198;27.918;2023-01-28T03:28:17;5.73;;;4.53;;
6598;SDS011;3335;43.198;27.918;2023-01-28T03:31:04;6.10;;;4.10;;
6598;SDS011;3335;43.198;27.918;2023-01-28T03:33:53;7.13;;;4.60;;
6598;SDS011;3335;43.198;27.918;2023-01-28T03:36:39;4.77;;;3.90;;
6598;SDS011;3335;43.198;27.918;2023-01-28T03:39:14;8.37;;;5.23;;
6598;SDS011;3335;43.198;27.918;2023-01-28T03:41:42;6.67;;;4.70;;
6598;SDS011;3335;43.198;27.918;2023-01-28T03:44:20;6.13;;;4.43;;
6598;SDS011;3335;43.198;27.918;2023-01-28T03:47:04;7.40;;;5.07;;
6598;SDS011;3335;43.198;27.918;2023-01-28T03:49:34;8.50;;;4.67;;
6598;SDS011;3335;43.198;27.918;2023-01-28T03:52:01;9.33;;;4.87;;
6598;SDS011;3335;43.198;27.918;2023-01-28T03:54:28;6.97;;;4.93;;
6598;SDS011;3335;43.198;27.918;2023-01-28T03:56:55;6.00;;;4.80;;
6598;SDS011;3335;43.198;27.918;2023-01-28T03:59:22;7.97;;;4.87;;
6598;SDS011;3335;43.198;27.918;2023-01-28T04:01:48;5.90;;;4.33;;
6598;SDS011;3335;43.198;27.918;2023-01-28T04:04:15;7.80;;;4.70;;
6598;SDS011;3335;43.198;27.918;2023-01-28T04:06:48;6.23;;;4.30;;
6598;SDS011;3335;43.198;27.918;2023-01-28T04:09:16;7.17;;;5.10;;
6598;SDS011;3335;43.198;27.918;2023-01-28T04:11:43;8.03;;;4.97;;
6598;SDS011;3335;43.198;27.918;2023-01-28T04:14:09;6.53;;;4.97;;
6598;SDS011;3335;43.198;27.918;2023-01-28T04:16:36;7.63;;;4.90;;
6598;SDS011;3335;43.198;27.918;2023-01-28T04:19:03;6.63;;;4.93;;
6598;SDS011;3335;43.198;27.918;2023-01-28T04:21:30;6.03;;;4.20;;
6598;SDS011;3335;43.198;27.918;2023-01-28T04:23:58;8.20;;;5.37;;
6598;SDS011;3335;43.198;27.918;2023-01-28T04:26:26;10.20;;;6.00;;
6598;SDS011;3335;43.198;27.918;2023-01-28T04:28:53;7.67;;;5.17;;
6598;SDS011;3335;43.198;27.918;2023-01-28T04:31:20;9.33;;;5.90;;
6598;SDS011;3335;43.198;27.918;2023-01-28T04:33:48;6.97;;;5.40;;
6598;SDS011;3335;43.198;27.918;2023-01-28T04:36:15;7.30;;;4.80;;
6598;SDS011;3335;43.198;27.918;2023-01-28T04:38:42;7.07;;;5.47;;
6598;SDS011;3335;43.198;27.918;2023-01-28T04:41:10;6.80;;;4.97;;
6598;SDS011;3335;43.198;27.918;2023-01-28T04:43:38;6.53;;;4.60;;
6598;SDS011;3335;43.198;27.918;2023-01-28T04:46:04;4.80;;;3.77;;
6598;SDS011;3335;43.198;27.918;2023-01-28T04:48:32;7.43;;;4.77;;
6598;SDS011;3335;43.198;27.918;2023-01-28T04:51:00;7.13;;;4.43;;
6598;SDS011;3335;43.198;27.918;2023-01-28T04:53:27;6.83;;;4.93;;
6598;SDS011;3335;43.198;27.918;2023-01-28T04:55:55;6.17;;;4.70;;
6598;SDS011;3335;43.198;27.918;2023-01-28T04:58:24;6.73;;;4.83;;
6598;SDS011;3335;43.198;27.918;2023-01-28T05:00:52;8.37;;;5.00;;
6598;SDS011;3335;43.198;27.918;2023-01-28T05:03:20;6.50;;;4.90;;
6598;SDS011;3335;43.198;27.918;2023-01-28T05:05:48;6.80;;;5.03;;
6598;SDS011;3335;43.198;27.918;2023-01-28T05:08:15;7.60;;;4.73;;
6598;SDS011;3335;43.198;27.918;2023-01-28T05:10:42;5.33;;;4.77;;
6598;SDS011;3335;43.198;27.918;2023-01-28T05:13:09;6.27;;;4.77;;
6598;SDS011;3335;43.198;27.918;2023-01-28T05:15:37;5.97;;;4.63;;
6598;SDS011;3335;43.198;27.918;2023-01-28T05:18:04;6.43;;;5.00;;
6598;SDS011;3335;43.198;27.918;2023-01-28T05:20:31;7.30;;;4.93;;
6598;SDS011;3335;43.198;27.918;2023-01-28T05:22:58;6.40;;;4.87;;
6598;SDS011;3335;43.198;27.918;2023-01-28T05:25:25;8.27;;;5.17;;
6598;SDS011;3335;43.198;27.918;2023-01-28T05:27:52;5.67;;;4.77;;
6598;SDS011;3335;43.198;27.918;2023-01-28T05:30:19;6.73;;;4.67;;
6598;SDS011;3335;43.198;27.918;2023-01-28T05:32:48;5.73;;;4.63;;
6598;SDS011;3335;43.198;27.918;2023-01-28T05:35:19;6.50;;;4.97;;
6598;SDS011;3335;43.198;27.918;2023-01-28T05:37:46;6.67;;;5.10;;
6598;SDS011;3335;43.198;27.918;2023-01-28T05:40:13;6.50;;;4.87;;
6598;SDS011;3335;43.198;27.918;2023-01-28T05:42:41;7.43;;;4.10;;
6598;SDS011;3335;43.198;27.918;2023-01-28T05:45:08;5.87;;;5.23;;
6598;SDS011;3335;43.198;27.918;2023-01-28T05:47:36;5.57;;;4.50;;
6598;SDS011;3335;43.198;27.918;2023-01-28T05:50:05;5.87;;;5.07;;
6598;SDS011;3335;43.198;27.918;2023-01-28T05:52:33;6.00;;;4.90;;
6598;SDS011;3335;43.198;27.918;2023-01-28T05:55:00;6.90;;;5.20;;
6598;SDS011;3335;43.198;27.918;2023-01-28T05:57:27;5.90;;;4.73;;
6598;SDS011;3335;43.198;27.918;2023-01-28T05:59:54;6.33;;;5.13;;
6598;SDS011;3335;43.198;27.918;2023-01-28T06:02:21;8.10;;;4.43;;
6598;SDS011;3335;43.198;27.918;2023-01-28T06:04:48;8.50;;;5.87;;
6598;SDS011;3335;43.198;27.918;2023-01-28T06:07:16;8.83;;;4.83;;
6598;SDS011;3335;43.198;27.918;2023-01-28T06:09:44;8.37;;;5.30;;
6598;SDS011;3335;43.198;27.918;2023-01-28T06:12:12;7.47;;;5.37;;
6598;SDS011;3335;43.198;27.918;2023-01-28T06:14:39;7.73;;;5.40;;
6598;SDS011;3335;43.198;27.918;2023-01-28T06:17:06;7.70;;;5.37;;
6598;SDS011;3335;43.198;27.918;2023-01-28T06:19:33;6.83;;;5.50;;
6598;SDS011;3335;43.198;27.918;2023-01-28T06:22:00;8.97;;;4.97;;
6598;SDS011;3335;43.198;27.918;2023-01-28T06:24:28;9.33;;;6.70;;
6598;SDS011;3335;43.198;27.918;2023-01-28T06:26:55;9.13;;;5.50;;
6598;SDS011;3335;43.198;27.918;2023-01-28T06:29:22;9.30;;;6.13;;
6598;SDS011;3335;43.198;27.918;2023-01-28T06:31:49;7.23;;;5.53;;
6598;SDS011;3335;43.198;27.918;2023-01-28T06:34:16;6.73;;;5.23;;
6598;SDS011;3335;43.198;27.918;2023-01-28T06:36:43;7.60;;;5.90;;
6598;SDS011;3335;43.198;27.918;2023-01-28T06:39:10;11.07;;;5.90;;
6598;SDS011;3335;43.198;27.918;2023-01-28T06:41:38;7.57;;;5.73;;
6598;SDS011;3335;43.198;27.918;2023-01-28T06:44:05;11.03;;;6.23;;
6598;SDS011;3335;43.198;27.918;2023-01-28T06:46:32;9.20;;;5.90;;
6598;SDS011;3335;43.198;27.918;2023-01-28T06:48:59;6.93;;;5.70;;
6598;SDS011;3335;43.198;27.918;2023-01-28T06:51:26;8.60;;;5.97;;
6598;SDS011;3335;43.198;27.918;2023-01-28T06:53:53;7.83;;;5.40;;
6598;SDS011;3335;43.198;27.918;2023-01-28T06:56:20;8.10;;;5.53;;
6598;SDS011;3335;43.198;27.918;2023-01-28T06:58:48;8.83;;;5.83;;
6598;SDS011;3335;43.198;27.918;2023-01-28T07:01:15;10.17;;;5.70;;
6598;SDS011;3335;43.198;27.918;2023-01-28T07:03:42;8.37;;;6.47;;
6598;SDS011;3335;43.198;27.918;2023-01-28T07:06:09;7.53;;;5.60;;
6598;SDS011;3335;43.198;27.918;2023-01-28T07:08:36;7.23;;;5.80;;
6598;SDS011;3335;43.198;27.918;2023-01-28T07:11:04;7.17;;;5.67;;
6598;SDS011;3335;43.198;27.918;2023-01-28T07:13:31;6.53;;;5.57;;
6598;SDS011;3335;43.198;27.918;2023-01-28T07:15:59;9.63;;;6.30;;
6598;SDS011;3335;43.198;27.918;2023-01-28T07:18:26;9.00;;;6.20;;
6598;SDS011;3335;43.198;27.918;2023-01-28T07:20:53;10.33;;;5.93;;
6598;SDS011;3335;43.198;27.918;2023-01-28T07:23:20;11.20;;;6.57;;
6598;SDS011;3335;43.198;27.918;2023-01-28T07:25:47;9.27;;;6.40;;
6598;SDS011;3335;43.198;27.918;2023-01-28T07:28:14;8.77;;;6.23;;
6598;SDS011;3335;43.198;27.918;2023-01-28T07:30:46;8.97;;;6.03;;
6598;SDS011;3335;43.198;27.918;2023-01-28T07:33:15;8.40;;;6.23;;
6598;SDS011;3335;43.198;27.918;2023-01-28T07:35:42;8.57;;;5.73;;
6598;SDS011;3335;43.198;27.918;2023-01-28T07:38:09;9.93;;;6.27;;
6598;SDS011;3335;43.198;27.918;2023-01-28T07:40:36;8.73;;;6.20;;
6598;SDS011;3335;43.198;27.918;2023-01-28T07:43:03;12.17;;;6.97;;
6598;SDS011;3335;43.198;27.918;2023-01-28T07:45:31;9.97;;;6.07;;
6598;SDS011;3335;43.198;27.918;2023-01-28T07:47:59;9.67;;;6.57;;
6598;SDS011;3335;43.198;27.918;2023-01-28T07:50:29;8.57;;;6.20;;
6598;SDS011;3335;43.198;27.918;2023-01-28T07:52:58;11.07;;;6.97;;
6598;SDS011;3335;43.198;27.918;2023-01-28T07:55:27;9.97;;;6.40;;
6598;SDS011;3335;43.198;27.918;2023-01-28T07:57:55;11.83;;;7.23;;
6598;SDS011;3335;43.198;27.918;2023-01-28T08:00:24;13.97;;;6.93;;
6598;SDS011;3335;43.198;27.918;2023-01-28T08:02:54;11.10;;;6.60;;
6598;SDS011;3335;43.198;27.918;2023-01-28T08:05:22;8.47;;;5.83;;
6598;SDS011;3335;43.198;27.918;2023-01-28T08:07:52;10.13;;;7.10;;
6598;SDS011;3335;43.198;27.918;2023-01-28T08:10:19;12.00;;;6.93;;
6598;SDS011;3335;43.198;27.918;2023-01-28T08:12:50;12.50;;;7.17;;
6598;SDS011;3335;43.198;27.918;2023-01-28T08:15:17;12.10;;;7.70;;
6598;SDS011;3335;43.198;27.918;2023-01-28T08:17:44;22.53;;;6.80;;
6598;SDS011;3335;43.198;27.918;2023-01-28T08:20:11;15.20;;;6.80;;
6598;SDS011;3335;43.198;27.918;2023-01-28T08:22:38;10.67;;;6.97;;
6598;SDS011;3335;43.198;27.918;2023-01-28T08:25:07;13.80;;;7.90;;
6598;SDS011;3335;43.198;27.918;2023-01-28T08:27:34;11.07;;;7.53;;
6598;SDS011;3335;43.198;27.918;2023-01-28T08:30:01;13.13;;;6.80;;
6598;SDS011;3335;43.198;27.918;2023-01-28T08:32:28;13.50;;;7.63;;
6598;SDS011;3335;43.198;27.918;2023-01-28T08:34:55;12.10;;;7.60;;
6598;SDS011;3335;43.198;27.918;2023-01-28T08:37:22;11.70;;;6.77;;
6598;SDS011;3335;43.198;27.918;2023-01-28T08:39:49;14.30;;;7.90;;
6598;SDS011;3335;43.198;27.918;2023-01-28T08:42:18;14.53;;;8.30;;
6598;SDS011;3335;43.198;27.918;2023-01-28T08:44:45;13.13;;;7.63;;
6598;SDS011;3335;43.198;27.918;2023-01-28T08:47:12;12.03;;;8.23;;
6598;SDS011;3335;43.198;27.918;2023-01-28T08:49:39;17.03;;;8.13;;
6598;SDS011;3335;43.198;27.918;2023-01-28T08:52:06;18.10;;;8.50;;
6598;SDS011;3335;43.198;27.918;2023-01-28T08:54:33;15.77;;;9.30;;
6598;SDS011;3335;43.198;27.918;2023-01-28T08:57:00;20.77;;;11.37;;
6598;SDS011;3335;43.198;27.918;2023-01-28T08:59:29;16.73;;;9.10;;
6598;SDS011;3335;43.198;27.918;2023-01-28T09:01:56;11.73;;;8.63;;
6598;SDS011;3335;43.198;27.918;2023-01-28T09:04:23;17.37;;;8.47;;
6598;SDS011;3335;43.198;27.918;2023-01-28T09:06:50;14.40;;;9.13;;
6598;SDS011;3335;43.198;27.918;2023-01-28T09:09:17;14.27;;;8.87;;
6598;SDS011;3335;43.198;27.918;2023-01-28T09:11:44;13.63;;;8.17;;
6598;SDS011;3335;43.198;27.918;2023-01-28T09:14:10;12.40;;;8.10;;
6598;SDS011;3335;43.198;27.918;2023-01-28T09:16:39;12.77;;;8.07;;
6598;SDS011;3335;43.198;27.918;2023-01-28T09:19:06;13.73;;;8.73;;
6598;SDS011;3335;43.198;27.918;2023-01-28T09:21:32;16.07;;;9.00;;
6598;SDS011;3335;43.198;27.918;2023-01-28T09:23:59;13.27;;;8.70;;
6598;SDS011;3335;43.198;27.918;2023-01-28T09:26:26;14.17;;;8.87;;
6598;SDS011;3335;43.198;27.918;2023-01-28T09:28:54;15.73;;;8.20;;
6598;SDS011;3335;43.198;27.918;2023-01-28T09:31:20;15.03;;;9.03;;
6598;SDS011;3335;43.198;27.918;2023-01-28T09:33:49;13.63;;;8.67;;
6598;SDS011;3335;43.198;27.918;2023-01-28T09:36:20;15.47;;;8.83;;
6598;SDS011;3335;43.198;27.918;2023-01-28T09:38:47;13.90;;;8.40;;
6598;SDS011;3335;43.198;27.918;2023-01-28T09:41:19;16.53;;;8.33;;
6598;SDS011;3335;43.198;27.918;2023-01-28T09:46:53;11.87;;;8.23;;
6598;SDS011;3335;43.198;27.918;2023-01-28T09:49:31;16.20;;;9.00;;
6598;SDS011;3335;43.198;27.918;2023-01-28T09:52:00;18.33;;;10.17;;
6598;SDS011;3335;43.198;27.918;2023-01-28T09:54:29;16.20;;;9.40;;
6598;SDS011;3335;43.198;27.918;2023-01-28T09:57:02;16.77;;;9.67;;
6598;SDS011;3335;43.198;27.918;2023-01-28T09:59:33;16.53;;;9.50;;
6598;SDS011;3335;43.198;27.918;2023-01-28T10:02:10;17.37;;;9.40;;
6598;SDS011;3335;43.198;27.918;2023-01-28T10:05:02;17.57;;;9.30;;
6598;SDS011;3335;43.198;27.918;2023-01-28T10:07:42;17.50;;;9.47;;
6598;SDS011;3335;43.198;27.918;2023-01-28T10:10:21;16.83;;;9.57;;
6598;SDS011;3335;43.198;27.918;2023-01-28T10:12:57;15.43;;;8.50;;
6598;SDS011;3335;43.198;27.918;2023-01-28T10:18:29;14.73;;;9.53;;
6598;SDS011;3335;43.198;27.918;2023-01-28T10:21:04;15.47;;;9.90;;
6598;SDS011;3335;43.198;27.918;2023-01-28T10:23:39;16.27;;;9.67;;
6598;SDS011;3335;43.198;27.918;2023-01-28T10:26:15;16.87;;;9.20;;
6598;SDS011;3335;43.198;27.918;2023-01-28T10:28:51;20.97;;;10.77;;
6598;SDS011;3335;43.198;27.918;2023-01-28T10:31:21;16.10;;;9.77;;
6598;SDS011;3335;43.198;27.918;2023-01-28T10:33:52;19.93;;;11.00;;
6598;SDS011;3335;43.198;27.918;2023-01-28T10:36:21;15.87;;;9.20;;
6598;SDS011;3335;43.198;27.918;2023-01-28T10:38:48;13.33;;;8.60;;
6598;SDS011;3335;43.198;27.918;2023-01-28T10:41:19;11.83;;;7.83;;
6598;SDS011;3335;43.198;27.918;2023-01-28T10:43:47;16.67;;;9.57;;
6598;SDS011;3335;43.198;27.918;2023-01-28T10:46:16;17.80;;;10.77;;
6598;SDS011;3335;43.198;27.918;2023-01-28T10:48:47;16.40;;;10.03;;
6598;SDS011;3335;43.198;27.918;2023-01-28T10:51:30;17.60;;;11.07;;
6598;SDS011;3335;43.198;27.918;2023-01-28T10:53:58;19.07;;;10.73;;
6598;SDS011;3335;43.198;27.918;2023-01-28T10:56:25;15.93;;;10.23;;
6598;SDS011;3335;43.198;27.918;2023-01-28T10:58:56;44.27;;;10.97;;
6598;SDS011;3335;43.198;27.918;2023-01-28T11:01:37;18.10;;;9.60;;
6598;SDS011;3335;43.198;27.918;2023-01-28T11:04:12;20.27;;;10.57;;
6598;SDS011;3335;43.198;27.918;2023-01-28T11:06:50;23.63;;;12.17;;
6598;SDS011;3335;43.198;27.918;2023-01-28T11:09:22;22.67;;;11.10;;
6598;SDS011;3335;43.198;27.918;2023-01-28T11:11:50;21.97;;;10.87;;
6598;SDS011;3335;43.198;27.918;2023-01-28T11:14:20;23.30;;;10.33;;
6598;SDS011;3335;43.198;27.918;2023-01-28T11:16:48;16.63;;;10.20;;
6598;SDS011;3335;43.198;27.918;2023-01-28T11:19:17;21.73;;;11.80;;
6598;SDS011;3335;43.198;27.918;2023-01-28T11:21:50;19.10;;;10.23;;
6598;SDS011;3335;43.198;27.918;2023-01-28T11:24:20;20.93;;;12.43;;
6598;SDS011;3335;43.198;27.918;2023-01-28T11:26:49;17.57;;;9.87;;
6598;SDS011;3335;43.198;27.918;2023-01-28T11:29:21;21.60;;;11.93;;
6598;SDS011;3335;43.198;27.918;2023-01-28T11:31:50;17.10;;;10.97;;
6598;SDS011;3335;43.198;27.918;2023-01-28T11:34:17;18.47;;;11.23;;
6598;SDS011;3335;43.198;27.918;2023-01-28T11:36:50;18.60;;;9.97;;
6598;SDS011;3335;43.198;27.918;2023-01-28T11:39:19;25.57;;;11.17;;
6598;SDS011;3335;43.198;27.918;2023-01-28T11:41:48;21.83;;;11.57;;
6598;SDS011;3335;43.198;27.918;2023-01-28T11:44:18;20.60;;;11.33;;
6598;SDS011;3335;43.198;27.918;2023-01-28T11:49:56;20.40;;;11.03;;
6598;SDS011;3335;43.198;27.918;2023-01-28T11:52:35;22.93;;;11.53;;
6598;SDS011;3335;43.198;27.918;2023-01-28T11:55:21;19.80;;;11.63;;
6598;SDS011;3335;43.198;27.918;2023-01-28T11:58:02;17.93;;;11.10;;
6598;SDS011;3335;43.198;27.918;2023-01-28T12:00:40;23.20;;;12.10;;
6598;SDS011;3335;43.198;27.918;2023-01-28T12:03:22;20.87;;;11.27;;
6598;SDS011;3335;43.198;27.918;2023-01-28T12:06:00;22.10;;;11.93;;
6598;SDS011;3335;43.198;27.918;2023-01-28T12:08:42;22.23;;;11.90;;
6598;SDS011;3335;43.198;27.918;2023-01-28T12:11:20;17.63;;;10.37;;
6598;SDS011;3335;43.198;27.918;2023-01-28T12:14:09;22.77;;;11.70;;
6598;SDS011;3335;43.198;27.918;2023-01-28T12:16:49;20.93;;;12.13;;
6598;SDS011;3335;43.198;27.918;2023-01-28T12:19:28;24.60;;;13.00;;
6598;SDS011;3335;43.198;27.918;2023-01-28T12:22:08;22.13;;;11.77;;
6598;SDS011;3335;43.198;27.918;2023-01-28T12:24:59;20.67;;;10.63;;
6598;SDS011;3335;43.198;27.918;2023-01-28T12:27:47;22.67;;;12.60;;
6598;SDS011;3335;43.198;27.918;2023-01-28T12:30:24;29.53;;;13.27;;
6598;SDS011;3335;43.198;27.918;2023-01-28T12:33:08;25.50;;;14.23;;
6598;SDS011;3335;43.198;27.918;2023-01-28T12:35:55;26.13;;;13.80;;
6598;SDS011;3335;43.198;27.918;2023-01-28T12:38:33;22.40;;;12.00;;
6598;SDS011;3335;43.198;27.918;2023-01-28T12:41:15;24.70;;;12.50;;
6598;SDS011;3335;43.198;27.918;2023-01-28T12:43:52;26.53;;;12.37;;
6598;SDS011;3335;43.198;27.918;2023-01-28T12:46:29;20.70;;;10.53;;
6598;SDS011;3335;43.198;27.918;2023-01-28T12:49:07;26.90;;;13.30;;
6598;SDS011;3335;43.198;27.918;2023-01-28T12:51:46;19.87;;;11.87;;
6598;SDS011;3335;43.198;27.918;2023-01-28T12:54:21;21.30;;;10.47;;
6598;SDS011;3335;43.198;27.918;2023-01-28T12:56:59;25.80;;;12.20;;
6598;SDS011;3335;43.198;27.918;2023-01-28T12:59:28;23.17;;;12.53;;
6598;SDS011;3335;43.198;27.918;2023-01-28T13:02:05;20.50;;;11.50;;
6598;SDS011;3335;43.198;27.918;2023-01-28T13:04:52;25.40;;;13.37;;
6598;SDS011;3335;43.198;27.918;2023-01-28T13:07:26;24.20;;;12.77;;
6598;SDS011;3335;43.198;27.918;2023-01-28T13:09:59;24.80;;;12.80;;
6598;SDS011;3335;43.198;27.918;2023-01-28T13:12:31;26.10;;;13.80;;
6598;SDS011;3335;43.198;27.918;2023-01-28T13:14:59;22.03;;;12.90;;
6598;SDS011;3335;43.198;27.918;2023-01-28T13:17:27;26.60;;;13.03;;
6598;SDS011;3335;43.198;27.918;2023-01-28T13:19:55;24.13;;;12.33;;
6598;SDS011;3335;43.198;27.918;2023-01-28T13:22:28;27.43;;;13.17;;
6598;SDS011;3335;43.198;27.918;2023-01-28T13:24:57;20.87;;;12.03;;
6598;SDS011;3335;43.198;27.918;2023-01-28T13:27:40;23.47;;;13.20;;
6598;SDS011;3335;43.198;27.918;2023-01-28T13:30:21;25.10;;;13.73;;
6598;SDS011;3335;43.198;27.918;2023-01-28T13:32:54;32.00;;;15.60;;
6598;SDS011;3335;43.198;27.918;2023-01-28T13:35:27;29.53;;;15.70;;
6598;SDS011;3335;43.198;27.918;2023-01-28T13:37:57;28.73;;;14.73;;
6598;SDS011;3335;43.198;27.918;2023-01-28T13:40:34;25.57;;;13.53;;
6598;SDS011;3335;43.198;27.918;2023-01-28T13:43:04;23.57;;;13.07;;
6598;SDS011;3335;43.198;27.918;2023-01-28T13:45:54;20.70;;;12.03;;
6598;SDS011;3335;43.198;27.918;2023-01-28T13:48:25;27.70;;;15.10;;
6598;SDS011;3335;43.198;27.918;2023-01-28T13:50:58;29.60;;;14.90;;
6598;SDS011;3335;43.198;27.918;2023-01-28T13:53:33;22.80;;;12.73;;
6598;SDS011;3335;43.198;27.918;2023-01-28T13:56:14;27.57;;;14.53;;
6598;SDS011;3335;43.198;27.918;2023-01-28T14:02:14;24.70;;;13.40;;
6598;SDS011;3335;43.198;27.918;2023-01-28T14:17:16;23.73;;;12.20;;
6598;SDS011;3335;43.198;27.918;2023-01-28T14:19:56;28.77;;;14.07;;
6598;SDS011;3335;43.198;27.918;2023-01-28T14:22:25;25.70;;;13.13;;
6598;SDS011;3335;43.198;27.918;2023-01-28T14:24:52;27.50;;;13.90;;
6598;SDS011;3335;43.198;27.918;2023-01-28T14:27:22;28.60;;;14.27;;
6598;SDS011;3335;43.198;27.918;2023-01-28T14:30:01;31.63;;;14.63;;
6598;SDS011;3335;43.198;27.918;2023-01-28T14:32:42;26.20;;;13.40;;
6598;SDS011;3335;43.198;27.918;2023-01-28T14:35:14;24.87;;;13.50;;
6598;SDS011;3335;43.198;27.918;2023-01-28T14:37:48;28.00;;;13.77;;
6598;SDS011;3335;43.198;27.918;2023-01-28T14:40:17;25.57;;;14.47;;
6598;SDS011;3335;43.198;27.918;2023-01-28T14:42:47;25.13;;;14.00;;
6598;SDS011;3335;43.198;27.918;2023-01-28T14:45:24;20.50;;;11.87;;
6598;SDS011;3335;43.198;27.918;2023-01-28T14:48:08;28.33;;;13.57;;
6598;SDS011;3335;43.198;27.918;2023-01-28T14:50:52;26.87;;;12.97;;
6598;SDS011;3335;43.198;27.918;2023-01-28T14:53:38;23.97;;;11.87;;
6598;SDS011;3335;43.198;27.918;2023-01-28T14:56:21;28.37;;;14.30;;
6598;SDS011;3335;43.198;27.918;2023-01-28T14:58:59;24.90;;;14.00;;
6598;SDS011;3335;43.198;27.918;2023-01-28T15:01:31;29.70;;;14.10;;
6598;SDS011;3335;43.198;27.918;2023-01-28T15:03:58;27.70;;;13.87;;
6598;SDS011;3335;43.198;27.918;2023-01-28T15:06:29;23.13;;;12.80;;
6598;SDS011;3335;43.198;27.918;2023-01-28T15:09:05;22.33;;;12.43;;
6598;SDS011;3335;43.198;27.918;2023-01-28T15:11:34;27.17;;;14.10;;
6598;SDS011;3335;43.198;27.918;2023-01-28T15:14:04;26.70;;;13.57;;
6598;SDS011;3335;43.198;27.918;2023-01-28T15:16:40;25.00;;;13.43;;
6598;SDS011;3335;43.198;27.918;2023-01-28T15:19:13;22.30;;;11.73;;
6598;SDS011;3335;43.198;27.918;2023-01-28T15:21:41;22.63;;;11.47;;
6598;SDS011;3335;43.198;27.918;2023-01-28T15:24:11;21.80;;;11.23;;
6598;SDS011;3335;43.198;27.918;2023-01-28T15:26:44;23.37;;;11.63;;
6598;SDS011;3335;43.198;27.918;2023-01-28T15:31:58;22.73;;;11.93;;
6598;SDS011;3335;43.198;27.918;2023-01-28T15:34:25;27.07;;;13.33;;
6598;SDS011;3335;43.198;27.918;2023-01-28T15:36:54;29.40;;;13.43;;
6598;SDS011;3335;43.198;27.918;2023-01-28T15:39:22;31.97;;;13.97;;
6598;SDS011;3335;43.198;27.918;2023-01-28T15:41:51;26.37;;;13.00;;
6598;SDS011;3335;43.198;27.918;2023-01-28T15:44:23;33.07;;;14.63;;